Time;durP1;ratioP1;P1;durP2;ratioP2;P2;SDS_P1;SDS_P2;PMS_P1;PMS_P2;Temp;Humidity;BMP_temperature;BMP_pressure;BME280_temperature;BME280_humidity;BME280_pressure;Samples;Min_cycle;Max_cycle;Signal;HPM_P1;HPM_P2
2023/09/04 00:01:06;;;;;;;3.33;1.40;;;19.90;72.80;;;;;;5024846;28;20455;-66
2023/09/04 00:03:31;;;;;;;2.10;1.13;;;19.90;73.00;;;;;;5016939;28;20025;-66
2023/09/04 00:05:57;;;;;;;2.20;1.40;;;19.90;73.10;;;;;;5002877;28;20073;-66
2023/09/04 00:08:23;;;;;;;2.30;1.02;;;19.90;73.20;;;;;;5024266;28;20030;-66
2023/09/04 00:10:50;;;;;;;1.55;1.23;;;19.90;73.20;;;;;;5013342;28;20064;-66
2023/09/04 00:13:16;;;;;;;1.42;1.08;;;19.90;73.20;;;;;;5004278;28;20112;-67
2023/09/04 00:15:41;;;;;;;1.83;1.10;;;19.90;73.20;;;;;;5005858;28;20424;-67
2023/09/04 00:18:07;;;;;;;2.15;1.25;;;19.90;73.10;;;;;;5002287;28;20071;-66
2023/09/04 00:20:33;;;;;;;1.90;1.35;;;19.90;73.80;;;;;;5020123;28;20401;-66
2023/09/04 00:22:59;;;;;;;3.13;1.10;;;19.90;73.10;;;;;;5006652;28;20037;-66
2023/09/04 00:25:24;;;;;;;1.23;1.08;;;19.90;73.20;;;;;;5010928;28;20025;-66
2023/09/04 00:27:50;;;;;;;4.07;1.15;;;19.90;73.00;;;;;;5008144;28;20029;-66
2023/09/04 00:30:15;;;;;;;2.15;1.13;;;19.90;73.00;;;;;;5019109;28;20033;-66
2023/09/04 00:32:41;;;;;;;1.45;1.20;;;19.90;72.90;;;;;;5023041;28;20033;-66
2023/09/04 00:35:07;;;;;;;1.13;1.00;;;19.90;72.90;;;;;;5013027;28;20044;-66
2023/09/04 00:37:33;;;;;;;2.05;1.30;;;19.90;72.90;;;;;;4996183;28;20597;-66
2023/09/04 00:39:59;;;;;;;2.83;1.27;;;19.90;72.80;;;;;;5019062;28;20038;-66
2023/09/04 00:42:29;;;;;;;1.23;1.10;;;19.80;72.90;;;;;;5007675;28;20048;-66
2023/09/04 00:44:54;;;;;;;2.22;1.30;;;19.80;73.00;;;;;;5018701;28;20079;-67
2023/09/04 00:47:23;;;;;;;1.90;1.10;;;19.80;72.90;;;;;;5017755;28;20030;-67
2023/09/04 00:49:50;;;;;;;1.67;1.15;;;19.80;72.90;;;;;;5004148;28;20729;-66
2023/09/04 00:52:16;;;;;;;1.60;1.20;;;19.80;72.80;;;;;;5004281;28;20052;-66
2023/09/04 00:54:42;;;;;;;1.83;1.00;;;19.80;72.80;;;;;;5010408;28;20117;-66
2023/09/04 00:57:09;;;;;;;1.45;1.23;;;19.90;72.80;;;;;;5023055;28;20033;-66
2023/09/04 00:59:35;;;;;;;1.40;0.90;;;19.90;72.90;;;;;;5017916;28;20436;-66
2023/09/04 01:02:01;;;;;;;1.05;0.90;;;19.80;72.70;;;;;;5022209;28;20025;-66
2023/09/04 01:04:27;;;;;;;1.38;1.02;;;19.80;72.80;;;;;;5004451;28;20029;-66
2023/09/04 01:06:55;;;;;;;1.73;1.10;;;19.80;72.70;;;;;;5020920;28;20018;-66
2023/09/04 01:09:21;;;;;;;2.03;1.02;;;19.80;73.00;;;;;;5008555;28;20306;-66
2023/09/04 01:11:51;;;;;;;1.40;1.30;;;19.80;73.10;;;;;;5018976;28;20621;-65
2023/09/04 01:14:19;;;;;;;2.22;1.10;;;19.80;72.90;;;;;;5020001;28;20061;-66
2023/09/04 01:16:46;;;;;;;0.88;0.80;;;19.80;73.00;;;;;;5010309;28;20201;-63
2023/09/04 01:19:12;;;;;;;1.30;1.00;;;19.80;73.00;;;;;;5004061;28;20385;-66
2023/09/04 01:21:38;;;;;;;1.33;1.23;;;19.80;73.00;;;;;;5022986;28;20036;-67
2023/09/04 01:24:04;;;;;;;1.13;0.80;;;19.80;72.90;;;;;;5001797;28;20553;-67
2023/09/04 01:26:43;;;;;;;1.00;0.90;;;19.80;73.00;;;;;;5016228;28;20105;-63
2023/09/04 01:29:19;;;;;;;1.17;0.80;;;19.80;73.00;;;;;;5004064;28;20393;-64
2023/09/04 01:31:54;;;;;;;1.15;1.05;;;19.80;73.20;;;;;;5017744;28;20018;-64
2023/09/04 01:34:29;;;;;;;1.42;1.33;;;19.80;73.10;;;;;;5018644;28;20113;-65
2023/09/04 01:36:57;;;;;;;;;;;19.80;73.10;;;;;;5012700;28;20026;-66
2023/09/04 01:39:23;;;;;;;1.50;1.10;;;19.80;73.20;;;;;;5021433;28;20408;-67
2023/09/04 01:41:50;;;;;;;1.55;1.00;;;19.80;73.00;;;;;;5004661;28;20100;-67
2023/09/04 01:44:15;;;;;;;1.50;1.38;;;19.80;73.10;;;;;;5014185;28;20057;-67
2023/09/04 01:46:41;;;;;;;2.35;0.93;;;19.80;73.10;;;;;;5016056;28;20057;-67
2023/09/04 01:49:09;;;;;;;1.42;0.82;;;19.80;73.00;;;;;;5015714;28;20049;-67
2023/09/04 01:51:34;;;;;;;0.80;0.80;;;19.80;73.20;;;;;;5016229;28;20535;-67
2023/09/04 01:54:00;;;;;;;1.23;1.13;;;19.80;73.20;;;;;;5012188;28;20034;-64
2023/09/04 01:56:26;;;;;;;1.00;0.80;;;19.80;73.20;;;;;;5006146;28;20034;-66
2023/09/04 01:58:51;;;;;;;1.42;1.10;;;19.80;73.10;;;;;;5026428;28;20101;-67
2023/09/04 02:01:17;;;;;;;1.20;1.05;;;19.80;73.80;;;;;;5002132;28;20030;-64
2023/09/04 02:03:46;;;;;;;1.55;1.02;;;19.80;73.10;;;;;;5001556;28;20037;-63
2023/09/04 02:06:12;;;;;;;1.55;1.27;;;19.80;73.10;;;;;;5016465;28;20042;-66
2023/09/04 02:08:38;;;;;;;3.72;1.33;;;19.80;73.20;;;;;;4992232;28;20120;-67
2023/09/04 02:11:04;;;;;;;1.00;0.88;;;19.80;73.10;;;;;;5015470;28;20132;-66
2023/09/04 02:13:29;;;;;;;1.08;0.98;;;19.80;73.20;;;;;;5005160;28;20489;-65
2023/09/04 02:15:55;;;;;;;1.17;0.88;;;19.80;73.10;;;;;;5009466;28;20042;-66
2023/09/04 02:18:20;;;;;;;1.80;1.40;;;19.80;73.00;;;;;;5018336;28;20060;-67
2023/09/04 02:20:47;;;;;;;2.00;1.55;;;19.80;73.20;;;;;;5018272;28;20067;-67
2023/09/04 02:23:12;;;;;;;1.77;0.90;;;19.80;73.20;;;;;;4995011;28;20041;-64
2023/09/04 02:25:38;;;;;;;0.80;0.80;;;19.70;73.10;;;;;;5021123;28;20269;-64
2023/09/04 02:28:03;;;;;;;2.00;1.20;;;19.80;73.20;;;;;;5027623;28;20022;-67
2023/09/04 02:30:29;;;;;;;1.63;1.10;;;19.70;73.10;;;;;;5021895;28;20044;-67
2023/09/04 02:32:58;;;;;;;0.80;0.80;;;19.80;73.00;;;;;;5003911;28;20170;-64
2023/09/04 02:35:25;;;;;;;1.27;1.17;;;19.70;73.10;;;;;;5020059;28;20109;-66
2023/09/04 02:37:51;;;;;;;1.52;0.80;;;19.70;73.10;;;;;;5027282;28;20035;-67
2023/09/04 02:40:16;;;;;;;2.03;1.00;;;19.70;73.00;;;;;;5009855;28;20030;-66
2023/09/04 02:42:42;;;;;;;1.27;1.10;;;19.70;72.90;;;;;;4991598;28;20041;-66
2023/09/04 02:45:08;;;;;;;1.38;1.00;;;19.80;73.00;;;;;;5026200;28;20029;-66
2023/09/04 02:47:37;;;;;;;1.38;1.00;;;19.70;72.90;;;;;;5000290;28;20030;-67
2023/09/04 02:50:06;;;;;;;2.10;1.10;;;19.70;73.00;;;;;;5026347;28;20041;-67
2023/09/04 02:52:32;;;;;;;0.80;0.80;;;19.70;73.00;;;;;;5017368;28;20447;-66
2023/09/04 02:54:57;;;;;;;1.77;1.15;;;19.70;72.90;;;;;;5022933;28;20034;-67
2023/09/04 02:57:23;;;;;;;1.30;1.00;;;19.70;73.00;;;;;;5015042;28;20022;-66
2023/09/04 02:59:49;;;;;;;2.17;1.13;;;19.70;73.00;;;;;;5012682;28;20033;-67
2023/09/04 03:02:14;;;;;;;2.75;0.95;;;19.70;73.00;;;;;;5008313;28;20026;-64
2023/09/04 03:04:40;;;;;;;1.23;1.13;;;19.70;72.90;;;;;;5023568;28;20040;-65
2023/09/04 03:07:06;;;;;;;1.15;0.98;;;19.70;73.00;;;;;;5019581;28;20116;-67
2023/09/04 03:09:31;;;;;;;1.23;0.90;;;19.70;73.00;;;;;;5019646;28;20036;-64
2023/09/04 03:12:01;;;;;;;1.10;1.00;;;19.70;73.00;;;;;;5008219;28;20524;-64
2023/09/04 03:14:27;;;;;;;1.17;0.90;;;19.70;73.10;;;;;;5017918;28;20030;-67
2023/09/04 03:16:52;;;;;;;0.85;0.80;;;19.70;73.00;;;;;;5024327;28;20073;-65
2023/09/04 03:19:18;;;;;;;1.33;1.05;;;19.70;73.00;;;;;;5004452;28;20118;-67
2023/09/04 03:21:43;;;;;;;1.20;0.88;;;19.70;73.00;;;;;;5005317;28;20034;-66
2023/09/04 03:24:09;;;;;;;1.00;0.80;;;19.70;73.00;;;;;;5018973;28;20117;-65
2023/09/04 03:26:34;;;;;;;1.92;1.08;;;19.70;73.00;;;;;;5015828;28;20037;-67
2023/09/04 03:29:00;;;;;;;1.17;1.05;;;19.70;72.80;;;;;;5007418;28;20025;-64
2023/09/04 03:31:25;;;;;;;1.45;1.00;;;19.70;73.00;;;;;;5003494;28;20507;-66
2023/09/04 03:33:51;;;;;;;1.15;1.05;;;19.70;72.90;;;;;;5023753;28;20313;-64
2023/09/04 03:36:16;;;;;;;1.25;1.13;;;19.70;73.00;;;;;;5018797;28;20026;-64
2023/09/04 03:38:43;;;;;;;2.35;1.10;;;19.70;72.90;;;;;;5014715;28;20277;-63
2023/09/04 03:41:08;;;;;;;1.90;1.10;;;19.70;72.60;;;;;;5018666;28;20022;-63
2023/09/04 03:43:34;;;;;;;1.40;0.80;;;19.60;72.90;;;;;;5024021;28;20037;-66
2023/09/04 03:46:00;;;;;;;1.05;0.98;;;19.70;72.70;;;;;;5025105;28;20033;-64
2023/09/04 03:48:26;;;;;;;1.23;0.93;;;19.70;72.90;;;;;;5020599;28;20049;-67
2023/09/04 03:50:52;;;;;;;1.45;1.33;;;19.70;73.00;;;;;;5005593;28;20064;-67
2023/09/04 03:53:17;;;;;;;2.55;1.38;;;19.70;73.00;;;;;;5024136;28;20432;-64
2023/09/04 03:55:43;;;;;;;1.02;0.80;;;19.60;72.90;;;;;;5013309;28;20496;-66
2023/09/04 03:58:09;;;;;;;1.30;1.20;;;19.60;72.90;;;;;;5024654;28;20041;-64
2023/09/04 04:00:34;;;;;;;2.85;1.20;;;19.60;73.50;;;;;;5017018;28;20037;-67
2023/09/04 04:03:00;;;;;;;1.77;0.95;;;19.60;72.80;;;;;;5025109;28;20531;-63
2023/09/04 04:05:26;;;;;;;0.90;0.80;;;19.60;72.80;;;;;;5005847;28;20037;-66
2023/09/04 04:07:52;;;;;;;1.08;0.98;;;19.60;72.90;;;;;;5000973;28;20086;-66
2023/09/04 04:10:18;;;;;;;3.80;1.00;;;19.60;72.90;;;;;;5007804;28;20066;-66
2023/09/04 04:12:44;;;;;;;1.20;1.10;;;19.60;72.70;;;;;;4992084;28;20111;-66
2023/09/04 04:15:11;;;;;;;1.55;0.90;;;19.60;72.90;;;;;;5012471;28;20073;-66
2023/09/04 04:17:37;;;;;;;1.45;1.05;;;19.60;72.90;;;;;;5022485;28;20036;-66
2023/09/04 04:20:07;;;;;;;1.38;0.90;;;19.60;72.80;;;;;;5017545;28;20179;-66
2023/09/04 04:22:33;;;;;;;1.00;0.90;;;19.60;72.90;;;;;;5003543;28;20104;-66
2023/09/04 04:24:59;;;;;;;1.38;0.90;;;19.60;72.70;;;;;;5001210;28;20488;-67
2023/09/04 04:27:24;;;;;;;2.28;1.02;;;19.60;72.80;;;;;;5020777;28;20049;-66
2023/09/04 04:29:52;;;;;;;1.20;1.02;;;19.60;72.60;;;;;;5022712;28;20030;-66
2023/09/04 04:32:17;;;;;;;1.10;1.00;;;19.60;72.70;;;;;;5018096;28;20036;-66
2023/09/04 04:34:43;;;;;;;1.25;1.00;;;19.60;72.80;;;;;;5013839;28;20026;-67
2023/09/04 04:37:08;;;;;;;2.05;1.10;;;19.60;72.90;;;;;;5004078;28;20036;-67
2023/09/04 04:39:34;;;;;;;2.00;1.10;;;19.60;72.90;;;;;;5022978;28;20037;-65
2023/09/04 04:42:00;;;;;;;1.35;1.17;;;19.50;72.70;;;;;;5003785;28;20033;-66
2023/09/04 04:44:26;;;;;;;1.52;1.00;;;19.60;72.80;;;;;;5005179;28;20764;-62
2023/09/04 04:46:52;;;;;;;1.20;1.00;;;19.60;72.80;;;;;;5017566;28;20026;-63
2023/09/04 04:49:20;;;;;;;2.42;1.02;;;19.60;72.80;;;;;;5017195;28;20239;-63
2023/09/04 04:51:46;;;;;;;1.30;0.88;;;19.50;72.70;;;;;;5017571;28;20029;-65
2023/09/04 04:54:12;;;;;;;1.45;1.20;;;19.60;72.80;;;;;;5011430;28;20511;-64
2023/09/04 04:56:39;;;;;;;2.35;1.70;;;19.60;72.70;;;;;;5021626;28;20504;-64
2023/09/04 04:59:05;;;;;;;2.22;1.02;;;19.60;72.60;;;;;;5010383;28;20033;-64
2023/09/04 05:01:31;;;;;;;1.15;1.05;;;19.60;72.60;;;;;;5020403;28;20025;-63
2023/09/04 05:03:56;;;;;;;1.15;0.95;;;19.70;72.60;;;;;;5017785;28;20032;-64
2023/09/04 05:06:22;;;;;;;1.75;1.00;;;19.70;72.60;;;;;;5018986;28;20021;-64
2023/09/04 05:08:47;;;;;;;4.03;1.38;;;19.70;72.60;;;;;;4994452;28;20088;-64
2023/09/04 05:11:13;;;;;;;2.33;1.50;;;19.60;72.60;;;;;;5018956;28;20069;-64
2023/09/04 05:13:39;;;;;;;1.40;1.25;;;19.60;72.60;;;;;;5014208;28;20038;-65
2023/09/04 05:16:05;;;;;;;2.35;1.13;;;19.60;72.60;;;;;;5026782;28;20052;-64
2023/09/04 05:18:32;;;;;;;2.47;0.95;;;19.60;72.60;;;;;;5008716;28;20040;-64
2023/09/04 05:20:57;;;;;;;2.35;1.00;;;19.70;72.90;;;;;;5025667;28;20422;-65
2023/09/04 05:23:23;;;;;;;2.08;0.95;;;19.70;73.10;;;;;;5024589;28;20026;-64
2023/09/04 05:25:52;;;;;;;1.33;1.10;;;19.70;73.00;;;;;;5022774;28;20041;-67
2023/09/04 05:28:18;;;;;;;3.65;1.15;;;19.70;72.60;;;;;;5024491;28;20088;-63
2023/09/04 05:30:45;;;;;;;1.83;1.00;;;19.70;72.80;;;;;;5022312;28;20041;-67
2023/09/04 05:33:10;;;;;;;1.58;0.88;;;19.70;72.80;;;;;;5025280;28;20042;-66
2023/09/04 05:35:36;;;;;;;2.15;1.00;;;19.80;72.80;;;;;;5024603;28;20436;-65
2023/09/04 05:38:01;;;;;;;2.15;1.20;;;19.70;72.60;;;;;;5004821;28;20061;-65
2023/09/04 05:40:27;;;;;;;4.35;1.20;;;19.70;72.80;;;;;;5007553;28;20103;-65
2023/09/04 05:42:52;;;;;;;4.38;1.55;;;19.80;72.80;;;;;;5004297;28;20037;-64
2023/09/04 05:45:21;;;;;;;6.28;1.40;;;19.80;72.70;;;;;;5023596;28;20487;-67
2023/09/04 05:47:47;;;;;;;2.65;1.42;;;19.80;72.70;;;;;;5007236;28;20076;-67
2023/09/04 05:50:13;;;;;;;2.28;1.33;;;19.80;72.70;;;;;;5026030;28;20037;-67
2023/09/04 05:52:39;;;;;;;1.85;1.00;;;19.80;72.60;;;;;;5020333;28;20432;-68
2023/09/04 05:55:05;;;;;;;2.10;1.30;;;19.90;72.60;;;;;;5017380;28;20045;-68
2023/09/04 05:57:30;;;;;;;2.35;1.20;;;19.90;72.40;;;;;;5023727;28;20045;-67
2023/09/04 05:59:56;;;;;;;4.57;1.40;;;19.90;72.30;;;;;;5023562;28;20034;-66
2023/09/04 06:02:21;;;;;;;3.00;1.30;;;19.90;72.40;;;;;;5008116;28;20030;-65
2023/09/04 06:04:47;;;;;;;1.98;1.20;;;19.90;72.30;;;;;;5002909;28;20029;-66
2023/09/04 06:07:14;;;;;;;1.60;1.15;;;19.90;72.30;;;;;;5021862;28;20093;-67
2023/09/04 06:09:40;;;;;;;1.70;0.95;;;19.90;72.10;;;;;;5020995;28;20049;-67
2023/09/04 06:12:08;;;;;;;5.70;1.65;;;19.90;72.20;;;;;;5025382;28;20494;-68
2023/09/04 06:14:34;;;;;;;3.47;1.60;;;19.90;72.20;;;;;;5025024;28;20037;-68
2023/09/04 06:17:00;;;;;;;3.83;1.45;;;19.90;72.20;;;;;;5022217;28;20068;-67
2023/09/04 06:19:26;;;;;;;3.88;1.23;;;19.90;72.00;;;;;;5019984;28;20022;-67
2023/09/04 06:21:52;;;;;;;4.03;1.30;;;19.90;71.90;;;;;;5016921;28;20109;-67
2023/09/04 06:24:17;;;;;;;1.98;1.30;;;19.80;71.70;;;;;;5021696;28;20116;-67
2023/09/04 06:26:43;;;;;;;3.20;1.60;;;19.80;71.70;;;;;;5024722;28;20022;-66
2023/09/04 06:29:08;;;;;;;1.83;1.30;;;19.80;71.70;;;;;;5005575;28;20033;-66
2023/09/04 06:31:34;;;;;;;4.00;1.67;;;19.80;71.60;;;;;;5020365;28;20041;-68
2023/09/04 06:34:03;;;;;;;5.03;1.83;;;19.80;71.50;;;;;;5025169;28;20036;-68
2023/09/04 06:36:28;;;;;;;2.15;1.40;;;19.80;71.40;;;;;;5021788;28;20064;-66
2023/09/04 06:38:54;;;;;;;3.97;1.60;;;19.80;71.30;;;;;;5023901;28;20049;-70
2023/09/04 06:41:21;;;;;;;4.95;1.77;;;19.80;71.40;;;;;;5007275;28;20029;-66
2023/09/04 06:43:47;;;;;;;3.67;1.80;;;19.80;71.40;;;;;;5023446;28;20041;-65
2023/09/04 06:46:13;;;;;;;10.95;5.15;;;19.80;71.20;;;;;;5024150;28;20437;-66
2023/09/04 06:48:39;;;;;;;15.70;7.65;;;19.80;71.10;;;;;;5023574;28;20041;-65
2023/09/04 06:51:04;;;;;;;16.90;7.70;;;19.80;71.30;;;;;;5021897;28;20037;-66
2023/09/04 06:53:30;;;;;;;15.63;7.25;;;19.90;71.50;;;;;;5017646;28;20041;-65
2023/09/04 06:55:55;;;;;;;15.63;8.02;;;19.90;72.00;;;;;;5022002;28;20041;-65
2023/09/04 06:58:22;;;;;;;12.57;5.20;;;19.90;72.10;;;;;;5023317;28;20056;-65
2023/09/04 07:00:47;;;;;;;17.40;7.35;;;19.90;71.30;;;;;;5024439;28;20041;-66
2023/09/04 07:03:13;;;;;;;8.63;3.53;;;19.90;71.20;;;;;;5020901;28;20044;-65
2023/09/04 07:05:38;;;;;;;13.23;5.38;;;19.90;68.50;;;;;;5002007;28;20160;-65
2023/09/04 07:08:04;;;;;;;7.30;4.00;;;20.00;70.40;;;;;;5021025;28;20703;-65
2023/09/04 07:10:31;;;;;;;8.15;3.95;;;20.00;70.70;;;;;;5003546;28;20395;-66
2023/09/04 07:12:58;;;;;;;10.95;4.18;;;20.00;71.20;;;;;;5023163;28;20022;-65
2023/09/04 07:15:24;;;;;;;7.60;4.30;;;20.00;71.40;;;;;;5021846;28;20034;-66
2023/09/04 07:17:49;;;;;;;9.25;4.63;;;20.10;71.50;;;;;;5019944;28;20369;-66
2023/09/04 07:20:15;;;;;;;9.07;4.25;;;20.10;71.60;;;;;;5002036;28;20099;-66
2023/09/04 07:22:40;;;;;;;8.23;3.65;;;20.10;71.70;;;;;;5019694;28;20030;-65
2023/09/04 07:25:06;;;;;;;5.97;3.35;;;20.20;71.80;;;;;;5024738;28;20029;-66
2023/09/04 07:27:32;;;;;;;5.80;3.63;;;20.20;71.70;;;;;;5024256;28;20033;-66
2023/09/04 07:29:58;;;;;;;7.72;3.13;;;20.20;71.80;;;;;;5018870;28;20132;-66
2023/09/04 07:32:25;;;;;;;6.40;3.22;;;20.20;71.80;;;;;;5018942;28;20036;-66
2023/09/04 07:34:55;;;;;;;4.85;3.20;;;20.20;71.80;;;;;;5018351;28;20026;-66
2023/09/04 07:37:27;;;;;;;7.30;3.65;;;20.20;71.80;;;;;;5021760;28;20523;-66
2023/09/04 07:39:53;;;;;;;7.72;3.78;;;20.20;71.80;;;;;;5002496;28;20069;-66
2023/09/04 07:42:19;;;;;;;4.05;2.38;;;20.20;71.80;;;;;;5022355;28;20092;-66
2023/09/04 07:44:45;;;;;;;4.10;2.50;;;20.20;71.80;;;;;;5019232;28;20112;-66
2023/09/04 07:47:10;;;;;;;5.55;2.38;;;20.20;71.80;;;;;;5005525;28;20507;-66
2023/09/04 07:49:36;;;;;;;4.13;2.20;;;20.10;71.70;;;;;;5021355;28;20431;-66
2023/09/04 07:52:02;;;;;;;4.63;2.97;;;20.10;71.50;;;;;;5006003;28;20026;-66
2023/09/04 07:54:27;;;;;;;4.88;2.25;;;20.20;71.60;;;;;;5021179;28;20045;-66
2023/09/04 07:56:53;;;;;;;4.15;1.98;;;20.10;71.40;;;;;;5007717;28;20026;-67
2023/09/04 07:59:18;;;;;;;4.75;2.58;;;20.10;71.40;;;;;;4999211;28;20029;-66
2023/09/04 08:01:44;;;;;;;3.65;2.17;;;20.10;71.50;;;;;;5017555;28;20562;-66
2023/09/04 08:04:09;;;;;;;6.40;2.75;;;20.10;71.40;;;;;;5004265;28;20033;-67
2023/09/04 08:06:35;;;;;;;6.72;2.33;;;20.10;71.30;;;;;;5019653;28;20332;-67
2023/09/04 08:09:01;;;;;;;5.18;2.53;;;20.10;71.30;;;;;;5002756;28;20156;-66
2023/09/04 08:11:26;;;;;;;5.53;2.55;;;20.10;71.30;;;;;;5023177;28;20429;-66
2023/09/04 08:13:52;;;;;;;4.82;2.22;;;20.10;71.30;;;;;;5004359;28;20547;-66
2023/09/04 08:16:17;;;;;;;9.05;3.05;;;20.10;71.30;;;;;;5019729;28;20531;-67
2023/09/04 08:18:43;;;;;;;4.78;2.33;;;20.10;71.30;;;;;;5022419;28;20554;-66
2023/09/04 08:21:09;;;;;;;6.43;2.55;;;20.10;71.20;;;;;;5018393;28;20602;-67
2023/09/04 08:23:35;;;;;;;5.65;2.80;;;20.10;71.20;;;;;;5019404;28;20049;-66
2023/09/04 08:26:01;;;;;;;5.20;2.65;;;20.10;71.20;;;;;;5018156;28;20033;-66
2023/09/04 08:28:27;;;;;;;8.20;2.80;;;20.00;71.10;;;;;;5018688;28;20523;-66
2023/09/04 08:30:54;;;;;;;5.15;2.80;;;20.00;71.20;;;;;;5001468;28;20049;-66
2023/09/04 08:33:20;;;;;;;7.70;2.72;;;20.00;71.10;;;;;;5017418;28;20581;-66
2023/09/04 08:35:45;;;;;;;4.22;2.67;;;20.00;71.10;;;;;;5018747;28;20037;-67
2023/09/04 08:38:11;;;;;;;4.90;2.78;;;20.00;71.10;;;;;;5022672;28;20037;-66
2023/09/04 08:40:40;;;;;;;5.40;2.60;;;20.10;71.20;;;;;;5021834;28;20033;-66
2023/09/04 08:43:07;;;;;;;6.30;2.72;;;20.00;71.10;;;;;;5021110;28;20404;-67
2023/09/04 08:45:35;;;;;;;7.20;2.97;;;20.00;71.10;;;;;;5019844;28;20467;-66
2023/09/04 08:48:02;;;;;;;4.63;2.85;;;20.00;71.10;;;;;;5016808;28;20261;-66
2023/09/04 08:50:29;;;;;;;6.47;2.67;;;20.00;71.20;;;;;;5001359;28;20505;-66
2023/09/04 08:52:55;;;;;;;5.18;2.70;;;20.00;71.30;;;;;;5002133;28;20040;-66
2023/09/04 08:55:20;;;;;;;7.00;2.33;;;20.00;71.20;;;;;;5022266;28;20033;-66
2023/09/04 08:57:47;;;;;;;6.53;2.70;;;20.00;71.30;;;;;;5020366;28;20026;-66
2023/09/04 09:00:13;;;;;;;4.57;2.55;;;20.00;71.40;;;;;;5017855;28;20034;-67
2023/09/04 09:02:41;;;;;;;4.13;2.05;;;20.00;71.40;;;;;;5021306;28;20041;-67
2023/09/04 09:05:08;;;;;;;5.07;2.00;;;20.00;71.40;;;;;;5021131;28;20528;-66
2023/09/04 09:07:36;;;;;;;4.95;2.15;;;20.00;71.40;;;;;;5020764;28;20037;-67
2023/09/04 09:10:04;;;;;;;5.05;2.40;;;20.00;71.40;;;;;;5017957;28;20108;-66
2023/09/04 09:12:30;;;;;;;4.68;2.45;;;20.00;72.00;;;;;;5004777;28;20022;-66
2023/09/04 09:14:59;;;;;;;4.57;2.20;;;20.00;71.50;;;;;;5000377;28;20037;-67
2023/09/04 09:17:25;;;;;;;3.67;1.83;;;20.00;71.50;;;;;;5003243;28;20393;-66
2023/09/04 09:19:51;;;;;;;4.40;2.05;;;20.00;72.10;;;;;;5000504;28;20033;-66
2023/09/04 09:22:18;;;;;;;4.63;2.22;;;20.00;71.50;;;;;;5022082;28;20424;-67
2023/09/04 09:24:54;;;;;;;2.97;1.65;;;20.00;71.50;;;;;;5019127;28;20243;-66
2023/09/04 09:27:24;;;;;;;4.30;2.00;;;20.00;71.50;;;;;;5018053;28;20506;-66
2023/09/04 09:29:50;;;;;;;4.35;1.98;;;20.00;71.50;;;;;;5015509;28;20026;-66
2023/09/04 09:32:18;;;;;;;5.18;2.45;;;20.00;71.50;;;;;;5015521;28;20025;-66
2023/09/04 09:34:54;;;;;;;4.18;1.80;;;20.00;71.50;;;;;;5020905;28;20036;-66
2023/09/04 09:37:23;;;;;;;4.97;2.55;;;20.00;71.50;;;;;;5019213;28;20083;-66
2023/09/04 09:39:49;;;;;;;6.13;2.13;;;20.00;71.50;;;;;;5003215;28;20042;-66
2023/09/04 09:42:14;;;;;;;3.83;2.30;;;20.00;71.50;;;;;;5021524;28;20033;-66
2023/09/04 09:44:40;;;;;;;3.28;1.55;;;20.00;71.60;;;;;;5002627;28;20056;-66
2023/09/04 09:47:13;;;;;;;4.65;2.20;;;20.00;71.50;;;;;;5019160;28;20037;-66
2023/09/04 09:49:40;;;;;;;2.35;1.63;;;20.00;71.50;;;;;;5008157;28;20054;-66
2023/09/04 09:52:10;;;;;;;3.58;1.67;;;20.00;71.50;;;;;;5016318;28;20087;-66
2023/09/04 09:54:42;;;;;;;3.08;1.88;;;20.00;71.40;;;;;;5023927;28;20068;-66
2023/09/04 09:57:16;;;;;;;2.70;1.60;;;20.00;71.40;;;;;;5019663;28;20520;-66
2023/09/04 09:59:44;;;;;;;3.03;1.58;;;20.00;71.30;;;;;;5020364;28;20037;-66
2023/09/04 10:02:11;;;;;;;4.28;1.95;;;20.00;71.30;;;;;;5017685;28;20034;-66
2023/09/04 10:04:38;;;;;;;2.55;1.80;;;20.00;71.30;;;;;;5019860;28;20022;-66
2023/09/04 10:07:04;;;;;;;3.45;1.90;;;20.00;71.30;;;;;;5023516;28;20014;-66
2023/09/04 10:09:44;;;;;;;2.38;1.65;;;20.00;71.20;;;;;;5021970;28;20037;-66
2023/09/04 10:12:29;;;;;;;2.95;1.70;;;20.00;71.20;;;;;;5021152;28;20029;-66
2023/09/04 10:14:57;;;;;;;2.35;1.55;;;20.00;71.30;;;;;;5023682;28;20029;-66
2023/09/04 10:17:35;;;;;;;2.55;1.63;;;20.00;71.20;;;;;;5023150;28;20034;-66
2023/09/04 10:20:04;;;;;;;2.92;1.92;;;20.00;71.10;;;;;;5021937;28;20373;-66
2023/09/04 10:22:43;;;;;;;2.90;1.30;;;20.00;71.00;;;;;;5022139;28;20393;-65
2023/09/04 10:25:22;;;;;;;2.85;1.40;;;20.00;71.10;;;;;;5021879;28;20030;-67
2023/09/04 10:28:00;;;;;;;2.85;1.63;;;20.00;71.00;;;;;;5017363;28;20029;-66
2023/09/04 10:30:30;;;;;;;2.55;2.10;;;20.00;71.00;;;;;;5021989;28;20107;-66
2023/09/04 10:32:55;;;;;;;2.55;1.70;;;20.00;71.00;;;;;;5000104;28;20041;-66
2023/09/04 10:35:21;;;;;;;2.10;1.33;;;20.00;71.00;;;;;;5022654;28;20076;-66
2023/09/04 10:37:49;;;;;;;2.63;1.38;;;20.00;70.90;;;;;;5007366;28;20162;-66
2023/09/04 10:40:16;;;;;;;2.15;1.50;;;20.00;71.00;;;;;;5023299;28;20029;-67
2023/09/04 10:42:43;;;;;;;2.38;1.80;;;20.00;70.90;;;;;;5026315;28;20110;-66
2023/09/04 10:45:16;;;;;;;2.78;1.58;;;20.00;70.90;;;;;;5006801;28;20702;-67
2023/09/04 10:47:50;;;;;;;1.88;1.50;;;20.00;70.90;;;;;;5020655;28;20033;-66
2023/09/04 10:50:29;;;;;;;2.40;1.48;;;20.00;70.90;;;;;;4996213;28;20175;-66
2023/09/04 10:52:59;;;;;;;3.03;1.52;;;20.00;70.90;;;;;;5023919;28;20053;-66
2023/09/04 10:55:24;;;;;;;4.43;1.40;;;20.00;70.90;;;;;;5019932;28;20030;-65
2023/09/04 10:58:00;;;;;;;3.00;1.48;;;19.90;70.90;;;;;;5015262;28;20041;-66
2023/09/04 11:00:36;;;;;;;2.72;1.48;;;19.90;70.90;;;;;;5018939;28;20060;-66
2023/09/04 11:03:18;;;;;;;2.97;1.50;;;19.90;71.00;;;;;;5003490;28;20025;-65
2023/09/04 11:06:08;;;;;;;2.95;1.80;;;19.90;70.90;;;;;;5022042;28;20448;-66
2023/09/04 11:08:35;;;;;;;2.58;1.60;;;20.00;71.00;;;;;;5019114;28;20188;-65
2023/09/04 11:11:09;;;;;;;3.15;1.52;;;19.90;70.90;;;;;;5006614;28;20030;-67
2023/09/04 11:13:40;;;;;;;2.40;1.43;;;20.00;71.00;;;;;;5020739;28;20049;-67
2023/09/04 11:16:09;;;;;;;1.80;1.38;;;19.90;70.90;;;;;;5022558;28;20319;-66
2023/09/04 11:18:36;;;;;;;2.00;1.10;;;19.90;70.90;;;;;;5022544;28;20034;-67
2023/09/04 11:21:05;;;;;;;1.48;1.15;;;19.90;70.90;;;;;;5022729;28;20025;-67
2023/09/04 11:23:33;;;;;;;4.82;1.80;;;20.00;71.00;;;;;;5005329;28;20397;-66
2023/09/04 11:25:59;;;;;;;1.88;1.48;;;19.90;70.80;;;;;;5018418;28;20033;-65
2023/09/04 11:28:26;;;;;;;1.77;1.30;;;19.90;70.90;;;;;;5001909;28;20411;-66
2023/09/04 11:30:54;;;;;;;1.92;1.48;;;20.00;71.00;;;;;;5018943;28;20451;-65
2023/09/04 11:33:22;;;;;;;3.97;1.30;;;19.90;71.00;;;;;;5019322;28;20120;-66
2023/09/04 11:36:01;;;;;;;2.03;1.17;;;19.90;70.90;;;;;;5023897;28;20042;-66
2023/09/04 11:38:28;;;;;;;1.70;1.27;;;19.90;71.00;;;;;;5018236;28;20037;-66
2023/09/04 11:40:54;;;;;;;2.15;1.20;;;19.90;70.90;;;;;;5024050;28;20029;-66
2023/09/04 11:43:22;;;;;;;2.45;1.40;;;20.00;70.90;;;;;;5019109;28;20041;-66
2023/09/04 11:45:54;;;;;;;1.27;1.17;;;19.90;70.90;;;;;;5004152;28;20120;-66
2023/09/04 11:48:19;;;;;;;3.08;1.38;;;19.90;71.00;;;;;;5022969;28;20056;-67
2023/09/04 11:50:45;;;;;;;3.50;1.70;;;20.00;71.00;;;;;;5023335;28;20041;-67
2023/09/04 11:53:11;;;;;;;3.30;1.38;;;20.00;71.00;;;;;;5021814;28;20033;-66
2023/09/04 11:55:36;;;;;;;2.65;1.40;;;20.00;71.10;;;;;;5017997;28;20117;-66
2023/09/04 11:58:03;;;;;;;2.00;1.33;;;19.90;70.90;;;;;;5019280;28;20064;-66
2023/09/04 12:00:28;;;;;;;2.30;1.25;;;19.90;71.00;;;;;;5002355;28;20034;-66
2023/09/04 12:02:54;;;;;;;2.97;1.27;;;19.90;71.00;;;;;;5018524;28;20516;-66
2023/09/04 12:05:20;;;;;;;2.30;1.35;;;19.90;70.90;;;;;;5019996;28;20042;-67
2023/09/04 12:07:46;;;;;;;1.95;1.33;;;20.00;71.00;;;;;;5021987;28;20042;-67
2023/09/04 12:10:12;;;;;;;2.42;1.30;;;19.90;71.00;;;;;;5022725;28;20044;-67
2023/09/04 12:12:38;;;;;;;3.70;1.15;;;20.00;71.10;;;;;;5020543;28;20039;-66
2023/09/04 12:15:05;;;;;;;1.23;1.13;;;19.90;71.70;;;;;;5021577;28;20034;-66
2023/09/04 12:17:30;;;;;;;2.00;1.45;;;19.90;71.00;;;;;;5022126;28;20079;-66
2023/09/04 12:19:56;;;;;;;3.08;1.42;;;19.90;71.00;;;;;;5022802;28;20026;-67
2023/09/04 12:22:22;;;;;;;3.55;1.50;;;20.00;71.10;;;;;;5004692;28;20061;-67
2023/09/04 12:25:07;;;;;;;3.08;1.40;;;19.90;71.10;;;;;;5019620;28;20424;-66
2023/09/04 12:27:34;;;;;;;4.05;1.50;;;20.00;71.40;;;;;;4996519;28;20566;-66
2023/09/04 12:30:00;;;;;;;2.42;1.02;;;19.90;71.00;;;;;;5019550;28;20820;-66
2023/09/04 12:32:26;;;;;;;2.30;1.50;;;20.00;71.00;;;;;;5021847;28;20034;-67
2023/09/04 12:35:08;;;;;;;2.85;1.10;;;20.00;71.10;;;;;;5020781;28;20190;-66
2023/09/04 12:37:38;;;;;;;1.77;1.58;;;20.00;71.10;;;;;;5016636;28;20037;-67
2023/09/04 12:40:06;;;;;;;3.25;1.60;;;20.00;71.00;;;;;;5020650;28;20491;-67
2023/09/04 12:42:32;;;;;;;2.25;1.17;;;20.00;71.00;;;;;;5020171;28;20034;-67
2023/09/04 12:44:57;;;;;;;4.88;1.30;;;20.00;71.00;;;;;;5004554;28;20056;-67
2023/09/04 12:47:23;;;;;;;3.00;1.45;;;20.00;71.00;;;;;;5020119;28;20544;-66